createdAt,value
2023-04-18T00:01:39.165Z,10.32
2023-04-18T00:05:40.732Z,12.45
2023-04-18T00:09:42.806Z,11.20
2023-04-18T00:13:47.162Z,14.30
2023-04-18T00:17:48.793Z,14.85
2023-04-18T00:21:53.057Z,14.07
2023-04-18T00:25:54.751Z,13.77
2023-04-18T00:29:56.354Z,16.15
2023-04-18T00:33:57.917Z,16.05
2023-04-18T00:37:59.354Z,15.35
2023-04-18T00:42:01.790Z,15.25
2023-04-18T00:46:03.579Z,15.95
2023-04-18T00:50:06.221Z,15.98
2023-04-18T00:54:08.408Z,15.68
2023-04-18T00:58:10.449Z,15.57
2023-04-18T01:02:12.277Z,16.98
2023-04-18T01:06:15.378Z,15.98
2023-04-18T01:10:16.899Z,16.27
2023-04-18T01:14:20.067Z,16.67
2023-04-18T01:18:22.498Z,16.17
2023-04-18T01:22:24.284Z,17.05
2023-04-18T01:26:26.253Z,16.92
2023-04-18T01:30:27.956Z,16.27
2023-04-18T01:34:29.484Z,18.33
2023-04-18T01:38:31.019Z,17.85
2023-04-18T01:42:32.671Z,16.15
2023-04-18T01:46:34.323Z,19.58
2023-04-18T01:50:36.300Z,18.08
2023-04-18T01:54:37.909Z,18.77
2023-04-18T01:58:41.425Z,17.35
2023-04-18T02:02:43.370Z,18.55
2023-04-18T02:06:45.236Z,16.92
2023-04-18T02:10:46.781Z,18.33
2023-04-18T02:14:52.507Z,19.70
2023-04-18T02:18:54.276Z,18.58
2023-04-18T02:22:55.801Z,20.83
2023-04-18T02:26:57.297Z,19.27
2023-04-18T02:31:01.315Z,19.17
2023-04-18T02:35:02.793Z,19.25
2023-04-18T02:39:04.485Z,18.67
2023-04-18T02:43:06.294Z,18.67
2023-04-18T02:47:08.057Z,18.27
2023-04-18T02:51:13.646Z,18.40
2023-04-18T02:55:15.350Z,18.58
2023-04-18T02:59:18.820Z,16.52
2023-04-18T03:03:43.494Z,17.83
2023-04-18T03:08:03.717Z,18.38
2023-04-18T03:12:06.275Z,16.95
2023-04-18T03:16:09.853Z,17.63
2023-04-18T03:20:12.641Z,16.73
2023-04-18T03:24:15.227Z,17.90
2023-04-18T03:28:19.924Z,16.30
2023-04-18T03:32:22.253Z,16.50
2023-04-18T03:36:25.318Z,16.02
2023-04-18T03:40:28.786Z,17.00
2023-04-18T03:44:35.446Z,16.77
2023-04-18T03:48:38.286Z,15.50
2023-04-18T03:52:44.076Z,15.98
2023-04-18T03:56:46.736Z,17.88
2023-04-18T04:00:52.442Z,16.17
2023-04-18T04:04:54.015Z,15.75
2023-04-18T04:08:55.873Z,18.55
2023-04-18T04:12:59.955Z,16.52
2023-04-18T04:17:02.334Z,16.23
2023-04-18T04:21:06.651Z,19.08
2023-04-18T04:25:24.189Z,17.67
2023-04-18T04:29:29.116Z,17.25
2023-04-18T04:33:33.232Z,17.88
2023-04-18T04:37:41.265Z,17.73
2023-04-18T04:42:30.183Z,16.20
2023-04-18T04:47:07.691Z,17.65
2023-04-18T04:51:11.727Z,18.73
2023-04-18T04:55:13.269Z,17.80
2023-04-18T04:59:16.668Z,17.98
2023-04-18T05:08:51.534Z,17.30
2023-04-18T05:12:53.003Z,17.58
2023-04-18T05:16:56.138Z,17.08
2023-04-18T05:21:48.347Z,17.30
2023-04-18T05:26:40.109Z,17.10
2023-04-18T05:30:41.644Z,16.90
2023-04-18T05:35:17.107Z,17.80
2023-04-18T05:39:18.735Z,15.88
2023-04-18T05:43:20.446Z,16.50
2023-04-18T05:47:24.143Z,16.15
2023-04-18T05:51:26.758Z,16.17
2023-04-18T05:55:28.383Z,16.05
2023-04-18T05:59:29.874Z,15.90
2023-04-18T06:03:31.630Z,15.38
2023-04-18T06:07:34.282Z,16.67
2023-04-18T06:11:35.905Z,14.77
2023-04-18T06:15:37.511Z,13.10
2023-04-18T06:19:42.304Z,14.68
2023-04-18T06:23:43.951Z,13.85
2023-04-18T06:27:45.464Z,12.75
2023-04-18T06:31:48.215Z,14.35
2023-04-18T06:35:49.975Z,13.80
2023-04-18T06:39:51.667Z,12.77
2023-04-18T06:44:03.428Z,13.80
2023-04-18T06:48:07.655Z,13.63
2023-04-18T06:52:09.302Z,14.45
2023-04-18T06:56:10.952Z,14.77
2023-04-18T07:00:13.270Z,13.93
2023-04-18T07:04:15.635Z,13.88
2023-04-18T07:08:17.757Z,14.65
2023-04-18T07:12:19.279Z,14.45
2023-04-18T07:16:21.084Z,13.75
2023-04-18T07:20:22.764Z,13.60
2023-04-18T07:24:24.582Z,15.50
2023-04-18T07:28:26.214Z,15.07
2023-04-18T07:32:28.059Z,14.82
2023-04-18T07:36:29.869Z,14.77
2023-04-18T07:40:31.540Z,14.38
2023-04-18T07:44:35.232Z,15.02
2023-04-18T07:48:37.001Z,14.43
2023-04-18T07:52:39.547Z,13.05
2023-04-18T07:56:41.284Z,13.85
2023-04-18T08:00:44.622Z,13.98
2023-04-18T08:04:47.119Z,14.05
2023-04-18T08:08:48.961Z,14.45
2023-04-18T08:12:50.734Z,13.02
2023-04-18T08:16:52.396Z,13.88
2023-04-18T08:20:53.913Z,13.23
2023-04-18T08:25:04.232Z,12.75
2023-04-18T08:29:07.917Z,12.95
2023-04-18T08:33:09.713Z,12.52
2023-04-18T08:37:11.390Z,11.50
2023-04-18T08:41:13.856Z,12.90
2023-04-18T08:45:15.579Z,12.57
2023-04-18T08:49:17.633Z,13.05
2023-04-18T08:53:19.390Z,12.63
2023-04-18T08:57:27.016Z,13.57
2023-04-18T09:01:52.827Z,13.23
2023-04-18T09:06:08.376Z,12.00
2023-04-18T09:10:10.535Z,11.55
2023-04-18T09:14:25.814Z,13.32
2023-04-18T09:18:27.292Z,12.32
2023-04-18T09:22:50.378Z,13.07
2023-04-18T09:26:56.787Z,13.57
2023-04-18T09:31:13.167Z,11.38
2023-04-18T09:35:24.805Z,13.25
2023-04-18T09:39:28.360Z,14.30
2023-04-18T09:43:29.942Z,12.95
2023-04-18T09:47:34.674Z,13.68
2023-04-18T09:51:36.721Z,15.07
2023-04-18T09:55:39.912Z,13.45
2023-04-18T09:59:54.940Z,14.13
2023-04-18T10:03:57.605Z,13.90
2023-04-18T10:07:59.549Z,14.85
2023-04-18T10:12:02.542Z,14.35
2023-04-18T10:16:04.684Z,14.90
2023-04-18T10:20:08.245Z,14.93
2023-04-18T10:24:52.905Z,16.20
2023-04-18T10:28:54.747Z,16.00
2023-04-18T10:32:56.939Z,16.00
2023-04-18T10:37:05.554Z,14.95
2023-04-18T10:41:17.589Z,13.88
2023-04-18T10:45:23.231Z,15.35
2023-04-18T10:49:32.028Z,15.13
2023-04-18T10:53:34.698Z,14.63
2023-04-18T10:57:48.514Z,13.13
2023-04-18T11:01:55.751Z,14.73
2023-04-18T11:06:03.797Z,15.90
2023-04-18T11:10:07.370Z,13.90
2023-04-18T11:14:09.133Z,15.63
2023-04-18T11:18:11.032Z,16.58
2023-04-18T11:22:13.322Z,17.27
2023-04-18T11:26:17.450Z,17.30
2023-04-18T11:30:19.301Z,14.63
2023-04-18T11:34:21.601Z,18.83
2023-04-18T11:38:28.769Z,16.00
2023-04-18T11:42:35.169Z,15.43
2023-04-18T11:46:39.946Z,15.88
2023-04-18T11:50:41.464Z,16.65
2023-04-18T11:54:44.824Z,16.70
2023-04-18T11:58:46.575Z,17.27
2023-04-18T12:02:51.059Z,16.25
2023-04-18T12:06:53.859Z,16.38
2023-04-18T12:10:55.705Z,15.80
2023-04-18T12:15:08.300Z,15.10
2023-04-18T12:19:11.220Z,15.35
2023-04-18T12:23:35.749Z,15.15
2023-04-18T12:27:53.004Z,14.98
2023-04-18T12:31:54.781Z,15.90
2023-04-18T12:35:56.564Z,14.93
2023-04-18T12:39:58.204Z,16.25
2023-04-18T12:44:00.305Z,14.27
2023-04-18T12:48:01.977Z,14.80
2023-04-18T12:52:03.579Z,15.40
2023-04-18T12:56:05.641Z,14.07
2023-04-18T13:00:10.957Z,14.20
2023-04-18T13:04:13.374Z,14.40
2023-04-18T13:08:17.751Z,13.82
2023-04-18T13:12:19.580Z,15.18
2023-04-18T13:16:21.283Z,13.30
2023-04-18T13:20:22.871Z,11.93
2023-04-18T13:24:24.561Z,13.55
2023-04-18T13:28:26.685Z,13.15
2023-04-18T13:32:28.454Z,13.75
2023-04-18T13:36:31.590Z,13.10
2023-04-18T13:40:33.656Z,12.55
2023-04-18T13:44:36.576Z,12.93
2023-04-18T13:48:38.149Z,13.40
2023-04-18T13:52:39.707Z,12.38
2023-04-18T13:56:41.603Z,13.18
2023-04-18T14:00:43.467Z,10.75
2023-04-18T14:04:45.413Z,12.02
2023-04-18T14:08:49.451Z,13.00
2023-04-18T14:12:51.396Z,12.32
2023-04-18T14:16:53.895Z,12.65
2023-04-18T14:20:55.579Z,12.20
2023-04-18T14:24:57.374Z,11.88
2023-04-18T14:28:59.241Z,10.77
2023-04-18T14:33:20.949Z,11.23
2023-04-18T14:37:22.523Z,11.38
2023-04-18T14:41:24.125Z,11.15
2023-04-18T14:45:26.284Z,11.27
2023-04-18T14:49:29.446Z,11.23
2023-04-18T14:53:31.053Z,10.30
2023-04-18T15:03:11.369Z,10.57
2023-04-18T15:07:15.535Z,10.90
2023-04-18T15:11:17.148Z,10.02
2023-04-18T15:15:19.519Z,9.80
2023-04-18T15:20:13.236Z,9.18
2023-04-18T15:25:07.237Z,10.63
2023-04-18T15:29:39.886Z,10.48
2023-04-18T15:33:41.751Z,10.82
2023-04-18T15:37:43.566Z,10.40
2023-04-18T15:42:34.801Z,10.52
2023-04-18T15:46:37.722Z,12.23
2023-04-18T15:51:16.494Z,12.00
2023-04-18T15:56:08.394Z,10.75
2023-04-18T16:01:10.012Z,11.32
2023-04-18T16:05:17.361Z,11.70
2023-04-18T16:09:46.656Z,12.68
2023-04-18T16:14:38.829Z,12.90
2023-04-18T16:24:22.056Z,13.63
2023-04-18T16:28:24.871Z,13.68
2023-04-18T16:32:26.518Z,14.38
2023-04-18T16:37:03.560Z,14.10
2023-04-18T16:41:13.381Z,13.70
2023-04-18T16:45:36.313Z,13.15
2023-04-18T16:50:03.199Z,14.75
2023-04-18T16:54:49.750Z,13.00
2023-04-18T16:59:09.572Z,12.82
2023-04-18T17:03:38.589Z,13.68
2023-04-18T17:08:28.003Z,12.90
2023-04-18T17:12:33.782Z,14.27
2023-04-18T17:17:19.279Z,13.23
2023-04-18T17:21:51.069Z,13.45
2023-04-18T17:25:52.886Z,13.55
2023-04-18T17:30:15.596Z,12.75
2023-04-18T17:35:07.084Z,13.70
2023-04-18T17:39:09.774Z,13.10
2023-04-18T17:43:52.521Z,13.85
2023-04-18T17:48:19.982Z,12.73
2023-04-18T17:52:22.013Z,13.80
2023-04-18T17:56:25.873Z,14.48
2023-04-18T18:01:01.477Z,13.70
2023-04-18T18:05:55.083Z,13.30
2023-04-18T18:10:25.177Z,13.30
2023-04-18T18:14:45.143Z,13.93
2023-04-18T18:18:47.022Z,13.20
2023-04-18T18:23:23.161Z,13.60
2023-04-18T18:28:14.917Z,13.57
2023-04-18T18:38:24.203Z,13.40
2023-04-18T18:42:26.413Z,14.55
2023-04-18T18:47:18.167Z,14.80
2023-04-18T18:52:12.041Z,14.02
2023-04-18T18:57:26.922Z,14.75
2023-04-18T19:07:44.855Z,13.30
2023-04-18T19:12:36.706Z,13.68
2023-04-18T19:17:29.242Z,15.38
2023-04-18T19:21:56.332Z,14.20
2023-04-18T19:26:51.947Z,14.48
2023-04-18T19:30:53.677Z,14.50
2023-04-18T19:34:56.598Z,14.65
2023-04-18T19:38:58.389Z,14.63
2023-04-18T19:43:41.562Z,14.88
2023-04-18T19:47:44.849Z,14.43
2023-04-18T19:52:16.953Z,14.02
2023-04-18T19:56:19.227Z,13.80
2023-04-18T20:00:23.684Z,14.77
2023-04-18T20:04:25.839Z,13.70
2023-04-18T20:08:29.862Z,13.98
2023-04-18T20:12:31.792Z,14.48
2023-04-18T20:16:34.629Z,14.02
2023-04-18T20:20:36.856Z,14.20
2023-04-18T20:24:58.749Z,14.90
2023-04-18T20:29:20.623Z,14.07
2023-04-18T20:33:42.098Z,13.68
2023-04-18T20:37:44.530Z,14.07
2023-04-18T20:42:12.685Z,12.45
2023-04-18T20:46:34.469Z,13.43
2023-04-18T20:51:00.344Z,13.88
2023-04-18T20:56:14.320Z,12.57
2023-04-18T21:01:03.953Z,12.88
2023-04-18T21:05:30.506Z,14.65
2023-04-18T21:13:59.629Z,13.55
2023-04-18T21:18:37.354Z,13.82
2023-04-18T21:23:27.420Z,13.90
2023-04-18T21:27:53.650Z,14.20
2023-04-18T21:32:20.303Z,14.38
2023-04-18T21:36:56.220Z,14.00
2023-04-18T21:41:03.968Z,14.93
2023-04-18T21:45:56.127Z,14.07
2023-04-18T21:50:36.353Z,15.48
2023-04-18T21:55:18.115Z,14.45
2023-04-18T21:59:40.303Z,15.02
2023-04-18T22:03:45.107Z,14.80
2023-04-18T22:07:58.399Z,15.02
2023-04-18T22:12:09.122Z,14.73
2023-04-18T22:16:34.862Z,15.73
2023-04-18T22:20:56.816Z,14.85
2023-04-18T22:25:24.864Z,17.30
2023-04-18T22:30:14.825Z,20.25
2023-04-18T22:34:36.454Z,14.23
2023-04-18T22:38:59.043Z,14.90
2023-04-18T22:43:54.274Z,17.40
2023-04-18T22:48:46.182Z,15.88
2023-04-18T22:52:48.075Z,14.80
2023-04-18T22:56:58.376Z,15.38
2023-04-18T23:01:01.949Z,14.15
2023-04-18T23:05:37.826Z,15.07
2023-04-18T23:14:57.598Z,13.88
2023-04-18T23:24:28.381Z,14.60
2023-04-18T23:29:37.586Z,14.55
2023-04-18T23:34:55.777Z,13.93
2023-04-18T23:38:57.509Z,15.30
2023-04-18T23:42:59.101Z,14.32
2023-04-18T23:47:00.788Z,14.18
2023-04-18T23:51:37.523Z,13.77
2023-04-18T23:56:28.593Z,12.02
